Time;durP1;ratioP1;P1;durP2;ratioP2;P2;SDS_P1;SDS_P2;PMS_P1;PMS_P2;Temp;Humidity;BMP_temperature;BMP_pressure;BME280_temperature;BME280_humidity;BME280_pressure;Samples;Min_cycle;Max_cycle;Signal;HPM_P1;HPM_P2
2022/04/07 00:43:41;;;;;;;4.60;3.95;;;13.10;21.10;;;;;;5050940;28;20048;-42
2022/04/07 00:46:06;;;;;;;4.90;4.43;;;13.10;21.10;;;;;;5051180;28;20033;-42
2022/04/07 00:48:35;;;;;;;5.40;4.75;;;12.90;21.10;;;;;;5070338;28;20063;-43
2022/04/07 00:51:02;;;;;;;6.07;4.72;;;13.00;21.10;;;;;;5074056;28;20020;-45
2022/04/07 00:53:28;;;;;;;5.03;4.55;;;13.00;21.50;;;;;;5056326;28;20083;-43
2022/04/07 00:55:59;;;;;;;5.57;4.80;;;13.00;21.60;;;;;;5054015;28;20033;-43
2022/04/07 00:58:26;;;;;;;5.25;4.75;;;13.00;21.30;;;;;;5059226;28;20036;-44
2022/04/07 01:00:52;;;;;;;5.47;4.97;;;13.00;21.50;;;;;;5073767;28;20051;-43
2022/04/07 01:03:18;;;;;;;5.28;4.70;;;12.80;22.00;;;;;;5066705;28;20475;-43
2022/04/07 01:05:43;;;;;;;5.88;4.55;;;12.80;22.30;;;;;;5054105;28;20483;-42
2022/04/07 01:08:09;;;;;;;5.97;4.82;;;12.90;21.90;;;;;;5058736;28;20039;-42
2022/04/07 01:10:35;;;;;;;6.25;4.70;;;12.90;22.20;;;;;;5071808;28;20032;-43
2022/04/07 01:13:01;;;;;;;5.53;5.03;;;12.90;22.10;;;;;;5073551;28;20036;-43
2022/04/07 01:15:26;;;;;;;5.95;5.15;;;13.00;22.30;;;;;;5060292;28;20033;-43
2022/04/07 01:17:52;;;;;;;6.88;5.45;;;12.80;22.50;;;;;;5053516;28;20092;-43
2022/04/07 01:20:18;;;;;;;7.85;5.72;;;12.60;23.10;;;;;;5044756;28;20414;-43
2022/04/07 01:22:46;;;;;;;5.60;5.10;;;12.70;23.10;;;;;;5073475;28;20111;-42
2022/04/07 01:25:13;;;;;;;7.70;5.65;;;12.70;22.90;;;;;;5071706;28;20085;-44
2022/04/07 01:27:39;;;;;;;6.10;5.50;;;12.70;23.20;;;;;;5073122;28;20103;-43
2022/04/07 01:30:08;;;;;;;6.22;5.20;;;12.60;23.60;;;;;;5069126;28;20131;-43
2022/04/07 01:32:36;;;;;;;5.40;4.90;;;12.70;23.80;;;;;;5071203;28;20032;-43
2022/04/07 01:35:02;;;;;;;7.03;5.32;;;12.50;24.20;;;;;;5063235;28;20056;-43
2022/04/07 01:37:29;;;;;;;6.80;5.88;;;12.60;24.30;;;;;;5030199;28;20032;-43
2022/04/07 01:39:55;;;;;;;6.18;5.22;;;12.50;24.20;;;;;;5038737;28;20379;-43
2022/04/07 01:42:20;;;;;;;5.75;5.25;;;12.60;24.50;;;;;;5032087;28;20030;-42
2022/04/07 01:44:49;;;;;;;5.57;5.07;;;12.60;24.80;;;;;;5031650;28;20134;-43
2022/04/07 01:47:19;;;;;;;5.40;4.90;;;12.60;24.70;;;;;;5052298;28;20017;-43
2022/04/07 01:49:51;;;;;;;9.02;5.32;;;12.70;25.40;;;;;;5050567;28;20053;-42
2022/04/07 01:52:17;;;;;;;6.07;5.47;;;12.40;25.60;;;;;;5052293;28;20048;-42
2022/04/07 01:54:43;;;;;;;5.82;4.75;;;12.50;25.60;;;;;;5050685;28;20053;-42
2022/04/07 01:57:12;;;;;;;7.07;4.82;;;12.60;25.80;;;;;;5052642;28;20087;-42
2022/04/07 02:09:37;;;;;;;5.25;4.65;;;12.50;26.60;;;;;;5015931;28;20036;-43
2022/04/07 02:12:04;;;;;;;5.57;5.05;;;12.50;26.90;;;;;;5017842;28;20464;-43
2022/04/07 02:14:30;;;;;;;5.53;5.03;;;12.50;26.40;;;;;;5012728;28;20030;-42
2022/04/07 02:16:55;;;;;;;5.10;4.70;;;12.60;26.70;;;;;;5016267;28;20056;-43
2022/04/07 02:19:21;;;;;;;6.25;4.68;;;12.50;26.80;;;;;;5052164;28;20029;-44
2022/04/07 02:21:47;;;;;;;6.50;5.32;;;12.60;26.80;;;;;;5049943;28;20024;-42
2022/04/07 02:24:14;;;;;;;5.20;4.78;;;12.60;26.90;;;;;;5043004;28;20028;-44
2022/04/07 02:26:40;;;;;;;5.65;4.70;;;12.60;27.00;;;;;;5051393;28;20079;-42
2022/04/07 02:29:06;;;;;;;5.07;4.68;;;12.60;27.30;;;;;;5027066;28;20480;-43
2022/04/07 02:31:31;;;;;;;6.00;4.47;;;12.40;27.20;;;;;;5012116;28;20080;-42
2022/04/07 02:33:57;;;;;;;6.10;5.50;;;12.40;27.70;;;;;;5030246;28;20075;-43
2022/04/07 02:36:22;;;;;;;6.45;5.30;;;12.50;27.20;;;;;;5032343;28;20028;-42
2022/04/07 02:38:48;;;;;;;7.30;4.85;;;12.60;27.30;;;;;;5029613;28;20103;-42
2022/04/07 02:41:14;;;;;;;4.97;4.57;;;12.50;27.20;;;;;;5032282;28;20080;-42
2022/04/07 02:43:39;;;;;;;6.93;5.25;;;12.50;27.50;;;;;;5054686;28;20144;-43
2022/04/07 02:46:05;;;;;;;7.32;4.97;;;12.40;27.90;;;;;;5055127;28;20466;-44
2022/04/07 02:48:31;;;;;;;4.97;4.47;;;12.20;28.50;;;;;;5050960;28;20428;-43
2022/04/07 02:50:56;;;;;;;4.90;4.45;;;12.10;28.80;;;;;;5051707;28;20079;-44
2022/04/07 02:53:22;;;;;;;5.25;4.63;;;12.10;29.00;;;;;;5050660;28;20512;-45
2022/04/07 02:55:47;;;;;;;6.28;5.68;;;12.10;28.70;;;;;;5051860;28;20029;-42
2022/04/07 02:58:13;;;;;;;8.10;4.78;;;12.20;28.40;;;;;;5050626;28;20474;-43
2022/04/07 03:00:39;;;;;;;5.57;5.00;;;12.20;28.40;;;;;;5033673;28;20032;-42
2022/04/07 03:03:05;;;;;;;5.30;4.68;;;12.10;29.30;;;;;;5060447;28;20078;-43
2022/04/07 03:05:31;;;;;;;7.72;4.82;;;12.20;28.70;;;;;;5071904;28;20024;-43
2022/04/07 03:07:57;;;;;;;5.43;4.60;;;12.30;28.80;;;;;;5051199;28;20450;-42
2022/04/07 03:10:23;;;;;;;5.78;4.78;;;12.30;28.70;;;;;;5071603;28;20024;-42
2022/04/07 03:12:48;;;;;;;5.57;5.07;;;12.20;29.20;;;;;;5069470;28;20074;-42
2022/04/07 03:15:14;;;;;;;4.70;4.30;;;12.10;29.00;;;;;;5071613;28;20028;-42
2022/04/07 03:17:39;;;;;;;4.70;4.28;;;12.20;28.80;;;;;;5063768;28;20096;-42
2022/04/07 03:20:06;;;;;;;5.03;4.60;;;12.10;29.10;;;;;;5051477;28;20032;-43
2022/04/07 03:22:31;;;;;;;5.07;4.57;;;12.20;29.00;;;;;;5048071;28;20167;-42
2022/04/07 03:24:57;;;;;;;6.35;4.53;;;12.20;28.90;;;;;;5071262;28;20445;-42
2022/04/07 03:27:23;;;;;;;5.07;4.57;;;12.20;29.20;;;;;;5066780;28;20505;-42
2022/04/07 03:29:48;;;;;;;5.13;4.32;;;12.20;29.00;;;;;;5051481;28;20060;-42
2022/04/07 03:32:14;;;;;;;5.22;4.65;;;12.10;29.20;;;;;;5033639;28;20021;-42
2022/04/07 03:34:39;;;;;;;5.85;4.50;;;12.10;29.10;;;;;;5071503;28;20032;-42
2022/04/07 03:37:06;;;;;;;5.32;4.68;;;12.20;29.20;;;;;;5032773;28;20510;-42
2022/04/07 03:39:33;;;;;;;4.72;4.32;;;12.20;29.20;;;;;;5031368;28;20084;-43
2022/04/07 03:42:00;;;;;;;5.43;4.93;;;12.30;29.50;;;;;;5031384;28;20028;-43
2022/04/07 03:44:26;;;;;;;5.43;4.82;;;12.20;29.50;;;;;;5051139;28;20066;-42
2022/04/07 03:46:52;;;;;;;5.97;4.70;;;12.10;29.80;;;;;;5069677;28;20418;-42
2022/04/07 03:49:18;;;;;;;8.63;4.65;;;12.20;29.90;;;;;;5051173;28;20029;-42
2022/04/07 03:51:44;;;;;;;5.63;4.63;;;12.20;29.90;;;;;;5053010;28;20098;-42
2022/04/07 03:54:10;;;;;;;5.75;4.53;;;12.30;30.10;;;;;;5053256;28;20025;-42
2022/04/07 03:56:36;;;;;;;5.30;4.80;;;12.20;30.20;;;;;;5051266;28;20021;-42
2022/04/07 03:59:02;;;;;;;5.63;5.03;;;12.20;30.30;;;;;;5063371;28;20358;-42
2022/04/07 04:01:28;;;;;;;6.55;4.63;;;12.20;30.10;;;;;;5052950;28;20025;-43
2022/04/07 04:03:54;;;;;;;5.43;4.93;;;12.10;31.00;;;;;;5050391;28;20052;-43
2022/04/07 04:06:20;;;;;;;6.63;4.93;;;12.10;31.10;;;;;;5070435;28;20038;-43
2022/04/07 04:08:45;;;;;;;6.00;5.00;;;12.10;30.90;;;;;;5051268;28;20111;-43
2022/04/07 04:11:12;;;;;;;6.93;5.70;;;12.10;30.80;;;;;;5071470;28;20048;-43
2022/04/07 04:13:39;;;;;;;6.20;5.60;;;12.20;30.80;;;;;;5058266;28;20137;-43
2022/04/07 04:16:06;;;;;;;5.85;5.13;;;12.20;31.40;;;;;;5050957;28;20059;-43
2022/04/07 04:18:32;;;;;;;5.68;5.03;;;12.30;31.10;;;;;;5041700;28;20491;-42
2022/04/07 04:20:58;;;;;;;6.75;5.55;;;12.10;31.40;;;;;;5071041;28;20112;-42
2022/04/07 04:23:23;;;;;;;6.57;5.55;;;12.10;31.80;;;;;;5060608;28;20122;-42
2022/04/07 04:25:49;;;;;;;7.07;6.35;;;12.10;31.80;;;;;;5050170;28;20072;-42
2022/04/07 04:28:15;;;;;;;7.80;5.97;;;12.00;32.20;;;;;;5049873;28;20025;-42
2022/04/07 04:30:41;;;;;;;7.18;6.40;;;12.10;31.80;;;;;;5051092;28;20032;-43
2022/04/07 04:33:07;;;;;;;9.65;5.97;;;12.00;32.50;;;;;;5048919;28;20041;-45
2022/04/07 04:35:32;;;;;;;7.28;6.55;;;12.00;32.10;;;;;;5050945;28;20029;-43
2022/04/07 04:37:58;;;;;;;8.43;7.40;;;12.00;31.90;;;;;;5035173;28;20041;-43
2022/04/07 04:40:24;;;;;;;13.07;8.50;;;11.90;32.20;;;;;;5054411;28;20378;-43
2022/04/07 04:42:49;;;;;;;11.82;8.63;;;11.90;32.60;;;;;;5053949;28;20103;-42
2022/04/07 04:45:15;;;;;;;8.98;8.15;;;11.80;33.70;;;;;;5054329;28;20359;-43
2022/04/07 04:47:41;;;;;;;12.55;8.82;;;11.80;33.60;;;;;;5054489;28;20078;-42
2022/04/07 04:50:08;;;;;;;11.18;9.05;;;11.80;34.60;;;;;;5073772;28;20051;-44
2022/04/07 04:52:34;;;;;;;9.50;8.50;;;11.80;34.10;;;;;;5074155;28;20397;-42
2022/04/07 04:54:59;;;;;;;11.55;8.63;;;11.80;34.20;;;;;;5056410;28;20020;-42
2022/04/07 04:57:25;;;;;;;10.30;9.05;;;11.90;33.90;;;;;;5059118;28;20033;-43
2022/04/07 04:59:51;;;;;;;9.38;7.93;;;11.80;34.70;;;;;;5035550;28;20035;-43
2022/04/07 05:02:16;;;;;;;10.57;8.18;;;11.90;34.80;;;;;;5053795;28;20443;-43
2022/04/07 05:04:42;;;;;;;10.15;8.60;;;11.80;35.00;;;;;;5068748;28;20152;-44
2022/04/07 05:07:07;;;;;;;14.13;8.48;;;11.80;34.90;;;;;;5055844;28;20390;-42
2022/04/07 05:09:34;;;;;;;10.07;8.32;;;11.70;35.60;;;;;;5057144;28;20100;-43
2022/04/07 05:12:00;;;;;;;9.75;8.80;;;11.90;36.10;;;;;;5053771;28;20112;-42
2022/04/07 05:14:26;;;;;;;11.43;7.90;;;11.90;35.90;;;;;;5066264;28;20100;-43
2022/04/07 05:16:52;;;;;;;11.07;9.25;;;11.90;35.80;;;;;;5073572;28;20021;-44
2022/04/07 05:19:17;;;;;;;14.68;8.52;;;11.70;36.80;;;;;;5059678;28;20025;-43
2022/04/07 05:21:44;;;;;;;9.60;8.63;;;11.90;37.30;;;;;;5053543;28;20521;-42
2022/04/07 05:24:09;;;;;;;9.70;8.07;;;11.90;36.90;;;;;;5050796;28;20335;-42
2022/04/07 05:26:35;;;;;;;10.43;8.13;;;11.90;36.60;;;;;;5071654;28;20082;-42
2022/04/07 05:29:01;;;;;;;9.82;8.38;;;12.00;36.70;;;;;;5053595;28;20048;-42
2022/04/07 05:31:27;;;;;;;9.95;8.15;;;12.10;36.90;;;;;;5073317;28;20033;-42
2022/04/07 05:33:52;;;;;;;9.05;8.05;;;12.10;36.50;;;;;;5062757;28;20098;-43
2022/04/07 05:36:18;;;;;;;11.50;8.35;;;12.10;36.80;;;;;;5053316;28;20116;-43
2022/04/07 05:38:44;;;;;;;10.27;8.18;;;12.00;36.70;;;;;;5058884;28;20028;-43
2022/04/07 05:41:10;;;;;;;9.25;8.15;;;12.00;37.50;;;;;;5073131;28;20044;-43
2022/04/07 05:43:35;;;;;;;9.90;8.20;;;12.00;37.40;;;;;;5065663;28;20515;-43
2022/04/07 05:46:01;;;;;;;11.07;8.65;;;12.20;38.10;;;;;;5052987;28;20024;-43
2022/04/07 05:48:27;;;;;;;11.05;8.55;;;12.20;37.10;;;;;;5051148;28;20101;-42
2022/04/07 05:50:53;;;;;;;10.07;8.90;;;12.20;36.80;;;;;;5052559;28;20566;-42
2022/04/07 05:53:18;;;;;;;11.45;9.35;;;12.20;36.90;;;;;;5033918;28;20124;-45
2022/04/07 05:55:44;;;;;;;9.70;8.60;;;12.20;36.60;;;;;;5053100;28;20035;-43
2022/04/07 05:58:10;;;;;;;15.02;9.60;;;12.20;37.50;;;;;;5051874;28;20070;-44
2022/04/07 06:00:38;;;;;;;11.77;9.27;;;12.10;37.80;;;;;;5051837;28;20049;-43
2022/04/07 06:03:04;;;;;;;10.68;9.25;;;12.10;37.90;;;;;;5050136;28;20062;-43
2022/04/07 06:05:30;;;;;;;10.77;9.52;;;12.10;37.70;;;;;;5040839;28;20114;-43
2022/04/07 06:08:00;;;;;;;15.10;9.75;;;12.20;37.80;;;;;;5045647;28;20036;-45
2022/04/07 06:10:27;;;;;;;11.18;9.13;;;12.20;38.50;;;;;;5069207;28;20047;-43
2022/04/07 06:12:53;;;;;;;13.02;9.93;;;12.20;37.80;;;;;;5069831;28;20119;-44
2022/04/07 06:15:18;;;;;;;12.00;9.15;;;12.30;38.10;;;;;;5052242;28;20278;-44
2022/04/07 06:17:44;;;;;;;16.58;9.30;;;12.30;37.70;;;;;;5072594;28;20103;-43
2022/04/07 06:20:11;;;;;;;11.73;8.82;;;12.30;37.50;;;;;;5069637;28;20020;-44
2022/04/07 06:22:38;;;;;;;11.43;8.82;;;12.40;37.60;;;;;;5054423;28;20024;-44
2022/04/07 06:25:04;;;;;;;13.20;9.65;;;12.10;38.70;;;;;;5054300;28;20493;-43
2022/04/07 06:27:48;;;;;;;11.68;9.30;;;12.30;38.30;;;;;;5052165;28;20025;-43
2022/04/07 06:30:19;;;;;;;11.98;9.00;;;12.40;37.70;;;;;;5057285;28;20059;-43
2022/04/07 06:32:46;;;;;;;12.48;8.80;;;12.40;37.80;;;;;;5059223;28;20047;-42
2022/04/07 06:35:14;;;;;;;11.27;9.40;;;12.50;37.90;;;;;;5070110;28;20524;-43
2022/04/07 06:37:49;;;;;;;12.27;9.50;;;12.50;37.80;;;;;;5054075;28;20482;-43
2022/04/07 06:40:21;;;;;;;12.68;8.68;;;12.70;37.10;;;;;;5069484;28;20081;-43
2022/04/07 06:42:48;;;;;;;13.30;8.35;;;12.50;36.70;;;;;;5068003;28;20084;-44
2022/04/07 06:45:14;;;;;;;9.38;8.45;;;12.60;36.80;;;;;;5056705;28;20040;-41
2022/04/07 06:47:40;;;;;;;12.82;9.43;;;12.70;36.70;;;;;;5072231;28;20081;-42
2022/04/07 06:50:08;;;;;;;11.65;8.70;;;12.70;36.50;;;;;;5054698;28;20021;-43
2022/04/07 06:52:34;;;;;;;11.95;9.40;;;12.60;37.10;;;;;;5051774;28;20041;-42
2022/04/07 06:55:00;;;;;;;13.30;9.20;;;12.70;36.70;;;;;;5051343;28;20032;-42
2022/04/07 06:57:26;;;;;;;11.70;8.63;;;12.60;36.90;;;;;;5051865;28;20422;-42
2022/04/07 06:59:51;;;;;;;13.07;9.38;;;12.80;36.90;;;;;;5062873;28;20358;-42
2022/04/07 07:02:17;;;;;;;11.90;9.35;;;12.70;37.30;;;;;;5054983;28;20026;-42
2022/04/07 07:04:43;;;;;;;10.77;9.20;;;12.50;37.00;;;;;;5044558;28;20025;-42
2022/04/07 07:07:10;;;;;;;11.98;9.60;;;12.60;36.80;;;;;;5048461;28;20210;-43
2022/04/07 07:09:37;;;;;;;13.98;10.93;;;12.70;36.80;;;;;;5018504;28;20033;-42
2022/04/07 07:12:03;;;;;;;11.57;10.23;;;12.60;36.90;;;;;;5043932;28;20025;-42
2022/04/07 07:14:29;;;;;;;14.57;9.45;;;12.60;37.20;;;;;;5048799;28;20044;-42
2022/04/07 07:16:54;;;;;;;12.18;10.15;;;12.60;37.60;;;;;;5031631;28;20029;-42
2022/04/07 07:19:26;;;;;;;12.80;10.07;;;12.60;37.90;;;;;;5045690;28;20052;-44
2022/04/07 07:21:52;;;;;;;12.20;9.10;;;12.70;37.20;;;;;;5054403;28;20108;-43
2022/04/07 07:24:18;;;;;;;11.77;9.70;;;12.70;37.80;;;;;;5052947;28;20051;-42
2022/04/07 07:26:48;;;;;;;13.57;9.98;;;12.80;37.10;;;;;;5071720;28;20056;-43
2022/04/07 07:29:14;;;;;;;14.57;10.43;;;12.80;37.70;;;;;;5050541;28;20025;-42
2022/04/07 07:31:39;;;;;;;13.38;10.63;;;12.70;38.30;;;;;;5051791;28;20501;-43
2022/04/07 07:34:05;;;;;;;14.85;9.93;;;12.80;37.80;;;;;;5039070;28;20514;-43
2022/04/07 07:36:31;;;;;;;10.38;8.85;;;13.00;37.60;;;;;;5031552;28;20037;-43
2022/04/07 07:38:57;;;;;;;11.15;9.95;;;12.90;37.20;;;;;;5057188;28;20033;-42
2022/04/07 07:41:23;;;;;;;14.10;10.48;;;13.00;36.80;;;;;;5050573;28;20025;-43
2022/04/07 07:43:49;;;;;;;13.07;8.90;;;12.90;37.00;;;;;;5056982;28;20108;-42
2022/04/07 07:46:16;;;;;;;12.60;10.45;;;13.00;37.30;;;;;;5052895;28;20166;-43
2022/04/07 07:48:42;;;;;;;10.55;9.55;;;13.00;37.10;;;;;;5062294;28;20540;-42
2022/04/07 07:51:08;;;;;;;11.43;10.18;;;13.00;36.80;;;;;;5064046;28;20105;-44
2022/04/07 07:53:34;;;;;;;10.40;9.27;;;13.10;36.30;;;;;;5051652;28;20071;-43
2022/04/07 07:55:59;;;;;;;13.07;9.98;;;13.20;36.40;;;;;;5050364;28;20213;-43
2022/04/07 07:58:25;;;;;;;13.13;9.27;;;13.20;36.20;;;;;;5058824;28;20075;-45
2022/04/07 08:00:51;;;;;;;10.23;8.85;;;13.20;36.30;;;;;;5048955;28;20534;-43
2022/04/07 08:03:17;;;;;;;10.27;8.50;;;13.30;36.00;;;;;;5051655;28;20130;-42
2022/04/07 08:05:43;;;;;;;10.38;9.27;;;13.40;36.20;;;;;;5049265;28;20059;-42
2022/04/07 08:08:27;;;;;;;10.55;8.98;;;13.40;36.00;;;;;;5063348;28;20492;-43
2022/04/07 08:10:53;;;;;;;18.90;9.50;;;13.40;36.10;;;;;;5060189;28;20025;-40
2022/04/07 08:13:18;;;;;;;11.35;9.95;;;13.50;36.00;;;;;;5051627;28;20071;-40
2022/04/07 08:15:44;;;;;;;12.32;7.93;;;13.40;35.60;;;;;;5043870;28;20029;-42
2022/04/07 08:18:10;;;;;;;11.68;9.45;;;13.60;36.40;;;;;;5057129;28;20081;-42
2022/04/07 08:20:36;;;;;;;11.32;9.52;;;13.70;35.50;;;;;;5046298;28;20064;-41
2022/04/07 08:23:01;;;;;;;12.30;9.65;;;13.70;35.40;;;;;;5041028;28;20503;-42
2022/04/07 08:25:27;;;;;;;12.75;9.35;;;13.70;35.60;;;;;;5051962;28;20071;-43
2022/04/07 08:27:52;;;;;;;10.80;9.65;;;13.90;37.30;;;;;;5057052;28;20086;-42
2022/04/07 08:30:18;;;;;;;11.90;9.70;;;13.90;34.80;;;;;;5045664;28;20029;-43
2022/04/07 08:32:44;;;;;;;12.25;10.20;;;13.90;34.60;;;;;;5041433;28;20063;-42
2022/04/07 08:35:10;;;;;;;11.15;9.82;;;14.00;34.60;;;;;;5051359;28;20111;-43
2022/04/07 08:37:36;;;;;;;11.68;9.63;;;14.00;34.70;;;;;;5046703;28;20033;-46
2022/04/07 08:40:06;;;;;;;10.85;9.70;;;14.00;34.20;;;;;;5016686;28;20025;-43
2022/04/07 08:42:33;;;;;;;12.18;10.10;;;14.10;34.00;;;;;;5043027;28;20482;-45
2022/04/07 08:44:59;;;;;;;12.48;10.98;;;14.10;34.00;;;;;;5028466;28;20041;-43
2022/04/07 08:47:25;;;;;;;10.32;8.75;;;14.20;34.10;;;;;;5036511;28;20028;-45
2022/04/07 08:49:51;;;;;;;12.00;10.10;;;14.20;33.80;;;;;;5044832;28;20082;-43
2022/04/07 08:52:18;;;;;;;11.98;10.80;;;14.20;34.00;;;;;;5050864;28;20021;-43
2022/04/07 08:54:48;;;;;;;13.10;10.85;;;;;;;;;;5045231;28;20033;-43
2022/04/07 08:57:14;;;;;;;11.57;10.38;;;14.30;33.10;;;;;;5041829;28;20048;-43
2022/04/07 08:59:41;;;;;;;14.75;10.25;;;14.40;33.60;;;;;;5049092;28;20025;-43
2022/04/07 09:02:09;;;;;;;12.80;10.27;;;14.50;33.10;;;;;;5050528;28;20056;-46
2022/04/07 09:04:39;;;;;;;11.63;10.43;;;14.60;32.60;;;;;;5028529;28;20115;-43
2022/04/07 09:07:06;;;;;;;12.75;10.40;;;14.60;31.50;;;;;;5047187;28;20117;-43
2022/04/07 09:09:33;;;;;;;11.35;10.18;;;14.60;31.10;;;;;;5045879;28;20028;-43
2022/04/07 09:11:59;;;;;;;12.43;10.07;;;14.70;30.90;;;;;;5049504;28;20025;-43
2022/04/07 09:14:25;;;;;;;12.98;11.02;;;14.70;30.30;;;;;;5048875;28;20028;-42
2022/04/07 09:16:54;;;;;;;13.70;11.20;;;14.70;29.90;;;;;;5049543;28;20033;-43
2022/04/07 09:19:21;;;;;;;12.50;10.63;;;14.80;29.40;;;;;;5045721;28;20025;-43
2022/04/07 09:21:47;;;;;;;14.90;12.30;;;14.90;29.90;;;;;;5042659;28;20039;-43
2022/04/07 09:24:14;;;;;;;15.15;10.43;;;15.00;29.30;;;;;;5049918;28;20033;-45
2022/04/07 09:26:43;;;;;;;14.05;12.10;;;15.10;29.00;;;;;;5047342;28;20095;-44
2022/04/07 09:29:10;;;;;;;14.43;11.68;;;15.10;29.10;;;;;;5051616;28;20052;-44
2022/04/07 09:31:49;;;;;;;14.00;11.93;;;15.20;28.80;;;;;;5040418;28;20406;-44
2022/04/07 09:34:15;;;;;;;14.88;12.98;;;15.10;28.60;;;;;;5046587;28;20037;-43
2022/04/07 09:36:40;;;;;;;15.60;11.88;;;15.10;28.50;;;;;;5043625;28;20029;-43
2022/04/07 09:39:06;;;;;;;15.07;12.63;;;15.20;28.60;;;;;;5048806;28;20032;-45
2022/04/07 09:41:32;;;;;;;15.00;13.07;;;15.30;27.60;;;;;;5049353;28;20028;-43
2022/04/07 09:44:00;;;;;;;16.15;12.63;;;15.30;27.60;;;;;;5040179;28;20048;-45
2022/04/07 09:46:31;;;;;;;16.90;13.75;;;15.30;27.30;;;;;;5048649;28;20036;-43
2022/04/07 09:49:07;;;;;;;17.88;14.38;;;15.30;27.60;;;;;;5047485;28;20115;-46
2022/04/07 09:51:38;;;;;;;24.45;16.40;;;15.40;27.10;;;;;;5051165;28;20115;-45
2022/04/07 09:54:09;;;;;;;24.02;16.13;;;15.50;27.10;;;;;;5045476;28;20036;-43
2022/04/07 09:56:35;;;;;;;22.95;16.08;;;15.60;26.90;;;;;;5047961;28;20024;-43
2022/04/07 09:59:07;;;;;;;23.63;16.90;;;15.70;26.50;;;;;;5043622;28;20034;-43
2022/04/07 10:01:34;;;;;;;19.42;15.85;;;15.80;26.40;;;;;;5041910;28;20096;-44
2022/04/07 10:04:02;;;;;;;20.60;15.90;;;15.70;26.40;;;;;;5047365;28;20466;-43
2022/04/07 10:07:11;;;;;;;20.88;16.20;;;15.80;26.10;;;;;;5048821;28;20501;-43
2022/04/07 10:09:40;;;;;;;20.67;16.00;;;16.00;26.30;;;;;;5043208;28;20056;-43
2022/04/07 10:12:07;;;;;;;24.63;17.98;;;15.90;25.20;;;;;;5048523;28;20494;-44
2022/04/07 10:14:34;;;;;;;23.92;17.95;;;16.00;26.00;;;;;;5045941;28;20061;-44
2022/04/07 10:17:00;;;;;;;29.27;19.30;;;16.20;25.10;;;;;;5016543;28;20038;-47
2022/04/07 10:19:29;;;;;;;27.00;19.10;;;16.20;24.10;;;;;;5045300;28;20051;-44
2022/04/07 10:22:07;;;;;;;27.95;19.17;;;16.30;23.60;;;;;;5069648;28;20028;-44
2022/04/07 10:24:33;;;;;;;23.05;17.80;;;;;;;;;;5045671;28;20029;-43
2022/04/07 10:27:02;;;;;;;26.25;20.35;;;16.30;24.00;;;;;;5060879;28;20035;-44
2022/04/07 10:29:28;;;;;;;27.20;20.23;;;16.40;24.20;;;;;;5033042;28;20081;-44
2022/04/07 10:32:13;;;;;;;24.52;18.58;;;16.50;23.70;;;;;;5033241;28;20025;-43
2022/04/07 10:34:51;;;;;;;24.10;18.75;;;16.40;23.20;;;;;;5051424;28;20144;-44
2022/04/07 10:37:47;;;;;;;23.55;18.05;;;16.50;22.50;;;;;;5052576;28;20025;-43
2022/04/07 10:40:34;;;;;;;22.52;16.90;;;16.70;23.00;;;;;;5051360;28;20044;-43
2022/04/07 10:43:17;;;;;;;24.30;17.70;;;16.70;22.50;;;;;;5051429;28;20037;-45
2022/04/07 10:45:44;;;;;;;26.45;17.92;;;17.00;22.00;;;;;;5050563;28;20486;-44
2022/04/07 10:48:23;;;;;;;21.73;17.80;;;16.90;21.80;;;;;;5059465;28;20398;-42
2022/04/07 10:50:49;;;;;;;21.00;15.85;;;17.00;22.20;;;;;;5069290;28;20040;-44
2022/04/07 10:53:20;;;;;;;18.65;15.05;;;17.20;21.20;;;;;;5060204;28;20036;-46
2022/04/07 10:56:01;;;;;;;19.50;15.27;;;17.20;22.30;;;;;;5062903;28;20516;-47
2022/04/07 10:58:45;;;;;;;21.50;15.45;;;17.30;21.10;;;;;;5046114;28;20171;-45
2022/04/07 11:01:29;;;;;;;;;;;17.20;20.80;;;;;;5051959;28;20400;-44
2022/04/07 11:04:19;;;;;;;21.95;15.93;;;17.20;20.70;;;;;;5066787;28;19924;-45
2022/04/07 11:07:22;;;;;;;18.52;13.90;;;17.60;20.20;;;;;;5064270;28;20033;-45
2022/04/07 11:09:57;;;;;;;18.55;13.93;;;17.70;26.90;;;;;;5052467;28;20021;-44
2022/04/07 11:12:25;;;;;;;18.70;15.05;;;17.80;24.50;;;;;;5059036;28;20020;-43
2022/04/07 11:15:15;;;;;;;18.17;14.40;;;17.80;19.50;;;;;;5064404;28;20025;-43
2022/04/07 11:17:44;;;;;;;18.95;15.27;;;18.00;19.30;;;;;;5067511;28;20023;-44
2022/04/07 11:20:23;;;;;;;14.90;13.35;;;18.00;19.50;;;;;;5069588;28;20063;-44
2022/04/07 11:22:56;;;;;;;19.67;14.27;;;18.20;19.20;;;;;;5065750;28;20575;-43
2022/04/07 11:25:32;;;;;;;17.55;15.30;;;18.10;20.10;;;;;;5069716;28;20069;-44
2022/04/07 11:28:14;;;;;;;20.27;16.23;;;18.30;19.70;;;;;;5059892;28;20418;-44
2022/04/07 11:30:43;;;;;;;15.95;13.98;;;18.50;18.30;;;;;;5050118;28;20021;-44
2022/04/07 11:33:23;;;;;;;16.92;14.27;;;18.50;18.80;;;;;;5057366;28;20033;-44
2022/04/07 11:36:02;;;;;;;16.65;14.82;;;18.70;18.10;;;;;;5054239;28;20078;-43
2022/04/07 11:38:30;;;;;;;16.88;12.80;;;18.90;17.30;;;;;;5044913;28;20323;-43
2022/04/07 11:41:02;;;;;;;17.23;14.52;;;19.10;18.00;;;;;;5044116;28;20056;-44
2022/04/07 11:43:30;;;;;;;17.63;13.13;;;19.30;17.60;;;;;;5050763;28;20048;-44
2022/04/07 11:45:57;;;;;;;19.83;15.73;;;19.50;19.00;;;;;;5058364;28;20116;-43
2022/04/07 11:48:23;;;;;;;20.10;14.93;;;19.70;16.50;;;;;;5067406;28;20053;-42
2022/04/07 11:50:51;;;;;;;17.60;14.00;;;19.90;15.20;;;;;;5062429;28;20033;-44
2022/04/07 11:53:17;;;;;;;17.48;13.05;;;19.70;16.80;;;;;;5060985;28;20457;-44
2022/04/07 11:55:43;;;;;;;17.13;13.88;;;19.60;16.50;;;;;;5067012;28;20108;-44
2022/04/07 11:58:17;;;;;;;15.55;12.15;;;19.60;16.30;;;;;;5075139;28;20429;-44
2022/04/07 12:00:43;;;;;;;15.52;10.85;;;19.50;16.30;;;;;;5072771;28;20033;-44
2022/04/07 12:03:09;;;;;;;14.02;12.55;;;19.60;17.00;;;;;;5075201;28;20543;-45
2022/04/07 12:05:39;;;;;;;14.23;12.05;;;19.60;15.90;;;;;;5061139;28;20445;-41
2022/04/07 12:08:15;;;;;;;13.38;11.93;;;19.90;15.20;;;;;;5054859;28;20078;-42
2022/04/07 12:10:44;;;;;;;14.57;11.88;;;20.00;14.70;;;;;;5054457;28;20043;-44
2022/04/07 12:13:10;;;;;;;11.15;9.63;;;20.20;14.70;;;;;;5054331;28;20044;-42
2022/04/07 12:15:37;;;;;;;10.85;9.73;;;20.40;15.20;;;;;;5039795;28;20024;-42
2022/04/07 12:18:07;;;;;;;14.75;10.18;;;21.30;13.50;;;;;;5037555;28;20169;-42
2022/04/07 12:20:34;;;;;;;11.90;10.48;;;25.40;8.50;;;;;;5053906;28;20020;-43
2022/04/07 12:23:04;;;;;;;13.43;10.70;;;27.40;4.70;;;;;;5065018;28;20036;-43
2022/04/07 12:25:30;;;;;;;12.27;10.13;;;26.90;3.80;;;;;;5054728;28;20093;-44
2022/04/07 12:28:13;;;;;;;11.15;9.93;;;26.70;2.70;;;;;;5052447;28;20017;-43
2022/04/07 12:30:47;;;;;;;12.23;9.50;;;28.40;5.00;;;;;;5065330;28;20111;-43
2022/04/07 12:34:05;;;;;;;12.00;9.80;;;30.30;1.40;;;;;;5042141;28;20455;-44
2022/04/07 12:36:32;;;;;;;13.30;9.70;;;30.30;1.00;;;;;;5016677;28;20041;-42
2022/04/07 12:39:03;;;;;;;18.63;11.48;;;28.80;2.30;;;;;;5061292;28;20021;-43
2022/04/07 12:41:40;;;;;;;12.68;9.77;;;;;;;;;;5060243;28;20135;-43
2022/04/07 12:44:29;;;;;;;11.70;9.98;;;29.30;1.00;;;;;;5048883;28;20057;-43
2022/04/07 12:46:57;;;;;;;12.50;9.93;;;29.40;1.00;;;;;;5062109;28;20033;-41
2022/04/07 12:49:24;;;;;;;11.18;10.18;;;;;;;;;;5054599;28;20039;-43
2022/04/07 12:51:59;;;;;;;12.15;10.93;;;31.40;1.00;;;;;;5058356;28;20485;-42
2022/04/07 12:54:25;;;;;;;11.27;10.23;;;33.10;1.00;;;;;;5060357;28;20036;-43
2022/04/07 12:57:05;;;;;;;10.93;9.90;;;33.70;1.00;;;;;;5051363;28;20025;-43
2022/04/07 12:59:31;;;;;;;12.95;11.65;;;34.50;1.00;;;;;;5062364;28;20099;-43
2022/04/07 13:01:56;;;;;;;12.48;11.23;;;35.90;1.00;;;;;;5056478;28;20024;-43
2022/04/07 13:04:22;;;;;;;15.18;9.68;;;35.30;1.00;;;;;;5065909;28;20020;-43
2022/04/07 13:06:49;;;;;;;17.42;15.55;;;37.30;1.00;;;;;;5066283;28;20028;-43
2022/04/07 13:09:16;;;;;;;15.10;12.65;;;37.40;1.00;;;;;;5037393;28;20052;-44
2022/04/07 13:11:42;;;;;;;10.32;9.30;;;36.50;1.00;;;;;;5060486;28;20418;-43
2022/04/07 13:14:10;;;;;;;11.70;10.15;;;36.70;1.00;;;;;;5062805;28;20075;-44
2022/04/07 13:16:37;;;;;;;11.93;10.73;;;33.40;1.00;;;;;;5056025;28;20039;-43
2022/04/07 13:19:04;;;;;;;13.30;10.20;;;33.60;1.00;;;;;;5063922;28;20037;-43
2022/04/07 13:21:41;;;;;;;13.18;10.73;;;32.20;1.00;;;;;;5052294;28;20056;-44
2022/04/07 13:24:08;;;;;;;15.77;11.63;;;31.20;1.00;;;;;;5048497;28;20025;-43
2022/04/07 13:26:34;;;;;;;12.48;10.23;;;30.70;1.00;;;;;;5070392;28;20029;-43
2022/04/07 13:28:59;;;;;;;10.95;9.68;;;30.10;1.00;;;;;;5062795;28;20485;-43
2022/04/07 13:31:25;;;;;;;15.27;12.65;;;29.40;1.00;;;;;;5066771;28;20036;-44
2022/04/07 13:33:51;;;;;;;10.20;9.00;;;29.20;1.00;;;;;;5029383;28;20064;-44
2022/04/07 13:36:17;;;;;;;14.38;10.35;;;28.50;1.00;;;;;;5070883;28;20028;-48